sensor_id;sensor_type;location;lat;lon;timestamp;P1;durP1;ratioP1;P2;durP2;ratioP2
3249;SDS011;1637;42.020;23.992;2022-11-20T00:01:19;5.43;;;1.40;;
3249;SDS011;1637;42.020;23.992;2022-11-20T00:03:47;2.80;;;1.20;;
3249;SDS011;1637;42.020;23.992;2022-11-20T00:06:16;9.10;;;1.40;;
3249;SDS011;1637;42.020;23.992;2022-11-20T00:08:44;4.90;;;1.90;;
3249;SDS011;1637;42.020;23.992;2022-11-20T00:11:12;2.80;;;1.30;;
3249;SDS011;1637;42.020;23.992;2022-11-20T00:13:40;4.80;;;1.03;;
3249;SDS011;1637;42.020;23.992;2022-11-20T00:16:08;3.43;;;2.33;;
3249;SDS011;1637;42.020;23.992;2022-11-20T00:18:37;4.93;;;1.80;;
3249;SDS011;1637;42.020;23.992;2022-11-20T00:21:04;3.57;;;1.40;;
3249;SDS011;1637;42.020;23.992;2022-11-20T00:23:34;2.40;;;1.70;;
3249;SDS011;1637;42.020;23.992;2022-11-20T00:26:01;3.03;;;1.63;;
3249;SDS011;1637;42.020;23.992;2022-11-20T00:28:29;2.57;;;1.23;;
3249;SDS011;1637;42.020;23.992;2022-11-20T00:31:00;6.60;;;2.10;;
3249;SDS011;1637;42.020;23.992;2022-11-20T00:33:28;4.50;;;1.50;;
3249;SDS011;1637;42.020;23.992;2022-11-20T00:35:58;2.00;;;1.50;;
3249;SDS011;1637;42.020;23.992;2022-11-20T00:38:25;2.03;;;1.63;;
3249;SDS011;1637;42.020;23.992;2022-11-20T00:40:55;2.03;;;1.20;;
3249;SDS011;1637;42.020;23.992;2022-11-20T00:43:23;5.27;;;1.60;;
3249;SDS011;1637;42.020;23.992;2022-11-20T00:45:50;1.10;;;0.90;;
3249;SDS011;1637;42.020;23.992;2022-11-20T00:48:16;1.80;;;1.13;;
3249;SDS011;1637;42.020;23.992;2022-11-20T00:50:43;6.60;;;1.47;;
3249;SDS011;1637;42.020;23.992;2022-11-20T00:53:10;2.80;;;1.30;;
3249;SDS011;1637;42.020;23.992;2022-11-20T00:55:37;4.87;;;1.20;;
3249;SDS011;1637;42.020;23.992;2022-11-20T00:58:05;14.23;;;1.70;;
3249;SDS011;1637;42.020;23.992;2022-11-20T01:00:32;1.67;;;0.93;;
3249;SDS011;1637;42.020;23.992;2022-11-20T01:02:58;4.60;;;1.20;;
3249;SDS011;1637;42.020;23.992;2022-11-20T01:05:25;3.30;;;1.10;;
3249;SDS011;1637;42.020;23.992;2022-11-20T01:07:52;3.67;;;1.00;;
3249;SDS011;1637;42.020;23.992;2022-11-20T01:10:19;2.33;;;1.03;;
3249;SDS011;1637;42.020;23.992;2022-11-20T01:12:46;1.60;;;1.20;;
3249;SDS011;1637;42.020;23.992;2022-11-20T01:15:34;2.03;;;1.30;;
3249;SDS011;1637;42.020;23.992;2022-11-20T01:18:01;2.17;;;1.10;;
3249;SDS011;1637;42.020;23.992;2022-11-20T01:20:28;3.77;;;1.40;;
3249;SDS011;1637;42.020;23.992;2022-11-20T01:22:55;1.50;;;0.83;;
3249;SDS011;1637;42.020;23.992;2022-11-20T01:25:22;0.93;;;0.70;;
3249;SDS011;1637;42.020;23.992;2022-11-20T01:27:49;2.10;;;1.10;;
3249;SDS011;1637;42.020;23.992;2022-11-20T01:30:16;2.90;;;1.13;;
3249;SDS011;1637;42.020;23.992;2022-11-20T01:32:44;1.70;;;0.90;;
3249;SDS011;1637;42.020;23.992;2022-11-20T01:35:11;0.90;;;0.80;;
3249;SDS011;1637;42.020;23.992;2022-11-20T01:37:38;1.20;;;0.90;;
3249;SDS011;1637;42.020;23.992;2022-11-20T01:40:05;5.53;;;1.33;;
3249;SDS011;1637;42.020;23.992;2022-11-20T01:42:32;2.13;;;1.13;;
3249;SDS011;1637;42.020;23.992;2022-11-20T01:48:20;2.17;;;1.40;;
3249;SDS011;1637;42.020;23.992;2022-11-20T01:50:49;3.20;;;0.93;;
3249;SDS011;1637;42.020;23.992;2022-11-20T01:53:18;2.60;;;1.30;;
3249;SDS011;1637;42.020;23.992;2022-11-20T01:55:48;1.00;;;0.80;;
3249;SDS011;1637;42.020;23.992;2022-11-20T01:58:16;4.20;;;1.40;;
3249;SDS011;1637;42.020;23.992;2022-11-20T02:00:46;2.43;;;1.40;;
3249;SDS011;1637;42.020;23.992;2022-11-20T02:03:14;1.40;;;1.00;;
3249;SDS011;1637;42.020;23.992;2022-11-20T02:05:46;1.93;;;1.00;;
3249;SDS011;1637;42.020;23.992;2022-11-20T02:08:18;6.20;;;1.10;;
3249;SDS011;1637;42.020;23.992;2022-11-20T02:10:46;4.33;;;1.10;;
3249;SDS011;1637;42.020;23.992;2022-11-20T02:13:12;2.80;;;1.20;;
3249;SDS011;1637;42.020;23.992;2022-11-20T02:15:57;1.30;;;0.90;;
3249;SDS011;1637;42.020;23.992;2022-11-20T02:18:24;4.73;;;0.87;;
3249;SDS011;1637;42.020;23.992;2022-11-20T02:20:53;2.97;;;1.07;;
3249;SDS011;1637;42.020;23.992;2022-11-20T02:23:27;4.60;;;1.00;;
3249;SDS011;1637;42.020;23.992;2022-11-20T02:26:01;3.30;;;0.80;;
3249;SDS011;1637;42.020;23.992;2022-11-20T02:28:32;1.43;;;0.80;;
3249;SDS011;1637;42.020;23.992;2022-11-20T02:30:59;1.00;;;0.83;;
3249;SDS011;1637;42.020;23.992;2022-11-20T02:33:26;1.00;;;0.80;;
3249;SDS011;1637;42.020;23.992;2022-11-20T02:35:53;1.40;;;0.80;;
3249;SDS011;1637;42.020;23.992;2022-11-20T02:38:20;2.33;;;0.90;;
3249;SDS011;1637;42.020;23.992;2022-11-20T02:40:47;3.10;;;0.87;;
3249;SDS011;1637;42.020;23.992;2022-11-20T02:43:16;2.13;;;0.90;;
3249;SDS011;1637;42.020;23.992;2022-11-20T02:45:43;1.87;;;0.97;;
3249;SDS011;1637;42.020;23.992;2022-11-20T02:48:10;2.60;;;0.90;;
3249;SDS011;1637;42.020;23.992;2022-11-20T02:50:37;3.67;;;0.93;;
3249;SDS011;1637;42.020;23.992;2022-11-20T02:53:05;2.10;;;1.10;;
3249;SDS011;1637;42.020;23.992;2022-11-20T02:55:32;1.70;;;1.03;;
3249;SDS011;1637;42.020;23.992;2022-11-20T02:57:59;4.43;;;1.10;;
3249;SDS011;1637;42.020;23.992;2022-11-20T03:00:27;5.17;;;1.30;;
3249;SDS011;1637;42.020;23.992;2022-11-20T03:02:54;1.67;;;0.90;;
3249;SDS011;1637;42.020;23.992;2022-11-20T03:05:21;2.30;;;1.00;;
3249;SDS011;1637;42.020;23.992;2022-11-20T03:07:48;2.27;;;1.10;;
3249;SDS011;1637;42.020;23.992;2022-11-20T03:10:14;4.83;;;1.40;;
3249;SDS011;1637;42.020;23.992;2022-11-20T03:12:41;2.70;;;1.30;;
3249;SDS011;1637;42.020;23.992;2022-11-20T03:15:09;1.93;;;1.40;;
3249;SDS011;1637;42.020;23.992;2022-11-20T03:17:37;1.93;;;1.20;;
3249;SDS011;1637;42.020;23.992;2022-11-20T03:20:04;3.17;;;1.07;;
3249;SDS011;1637;42.020;23.992;2022-11-20T03:22:32;4.00;;;1.30;;
3249;SDS011;1637;42.020;23.992;2022-11-20T03:24:59;3.67;;;1.63;;
3249;SDS011;1637;42.020;23.992;2022-11-20T03:27:26;1.73;;;1.27;;
3249;SDS011;1637;42.020;23.992;2022-11-20T03:29:52;3.47;;;1.50;;
3249;SDS011;1637;42.020;23.992;2022-11-20T03:32:19;3.67;;;2.00;;
3249;SDS011;1637;42.020;23.992;2022-11-20T03:34:47;4.87;;;1.70;;
3249;SDS011;1637;42.020;23.992;2022-11-20T03:37:14;3.37;;;1.30;;
3249;SDS011;1637;42.020;23.992;2022-11-20T03:39:41;3.60;;;1.40;;
3249;SDS011;1637;42.020;23.992;2022-11-20T03:42:08;4.90;;;1.57;;
3249;SDS011;1637;42.020;23.992;2022-11-20T03:44:55;1.57;;;1.13;;
3249;SDS011;1637;42.020;23.992;2022-11-20T03:47:22;2.37;;;1.00;;
3249;SDS011;1637;42.020;23.992;2022-11-20T03:49:50;1.80;;;1.10;;
3249;SDS011;1637;42.020;23.992;2022-11-20T03:52:17;2.63;;;0.80;;
3249;SDS011;1637;42.020;23.992;2022-11-20T03:54:44;2.03;;;1.00;;
3249;SDS011;1637;42.020;23.992;2022-11-20T03:57:11;2.23;;;1.20;;
3249;SDS011;1637;42.020;23.992;2022-11-20T03:59:37;1.90;;;1.40;;
3249;SDS011;1637;42.020;23.992;2022-11-20T04:02:04;3.40;;;1.00;;
3249;SDS011;1637;42.020;23.992;2022-11-20T04:04:31;2.17;;;1.00;;
3249;SDS011;1637;42.020;23.992;2022-11-20T04:06:59;1.63;;;0.90;;
3249;SDS011;1637;42.020;23.992;2022-11-20T04:09:26;1.77;;;1.10;;
3249;SDS011;1637;42.020;23.992;2022-11-20T04:11:53;6.20;;;0.90;;
3249;SDS011;1637;42.020;23.992;2022-11-20T04:14:20;1.10;;;0.90;;
3249;SDS011;1637;42.020;23.992;2022-11-20T04:16:46;1.77;;;0.90;;
3249;SDS011;1637;42.020;23.992;2022-11-20T04:19:14;5.05;;;1.15;;
3249;SDS011;1637;42.020;23.992;2022-11-20T04:21:42;4.67;;;1.27;;
3249;SDS011;1637;42.020;23.992;2022-11-20T04:24:10;8.47;;;1.40;;
3249;SDS011;1637;42.020;23.992;2022-11-20T04:26:37;4.10;;;1.20;;
3249;SDS011;1637;42.020;23.992;2022-11-20T04:29:04;4.40;;;1.77;;
3249;SDS011;1637;42.020;23.992;2022-11-20T04:31:32;5.47;;;1.77;;
3249;SDS011;1637;42.020;23.992;2022-11-20T04:34:00;2.27;;;1.40;;
3249;SDS011;1637;42.020;23.992;2022-11-20T04:36:28;5.97;;;2.40;;
3249;SDS011;1637;42.020;23.992;2022-11-20T04:38:56;5.17;;;1.60;;
3249;SDS011;1637;42.020;23.992;2022-11-20T04:41:26;3.57;;;1.17;;
3249;SDS011;1637;42.020;23.992;2022-11-20T04:43:55;8.73;;;1.33;;
3249;SDS011;1637;42.020;23.992;2022-11-20T04:46:24;4.20;;;1.37;;
3249;SDS011;1637;42.020;23.992;2022-11-20T04:48:52;4.70;;;1.67;;
3249;SDS011;1637;42.020;23.992;2022-11-20T04:51:19;2.47;;;1.20;;
3249;SDS011;1637;42.020;23.992;2022-11-20T04:53:46;8.87;;;7.70;;
3249;SDS011;1637;42.020;23.992;2022-11-20T04:56:14;3.17;;;1.30;;
3249;SDS011;1637;42.020;23.992;2022-11-20T04:58:42;9.73;;;8.80;;
3249;SDS011;1637;42.020;23.992;2022-11-20T05:01:10;4.60;;;1.43;;
3249;SDS011;1637;42.020;23.992;2022-11-20T05:03:38;3.37;;;1.57;;
3249;SDS011;1637;42.020;23.992;2022-11-20T05:06:05;5.30;;;1.30;;
3249;SDS011;1637;42.020;23.992;2022-11-20T05:08:33;8.00;;;1.60;;
3249;SDS011;1637;42.020;23.992;2022-11-20T05:11:01;3.77;;;1.27;;
3249;SDS011;1637;42.020;23.992;2022-11-20T05:13:29;2.30;;;1.20;;
3249;SDS011;1637;42.020;23.992;2022-11-20T05:16:02;2.87;;;1.30;;
3249;SDS011;1637;42.020;23.992;2022-11-20T05:18:29;7.60;;;4.57;;
3249;SDS011;1637;42.020;23.992;2022-11-20T05:20:56;2.53;;;1.40;;
3249;SDS011;1637;42.020;23.992;2022-11-20T05:23:23;7.53;;;1.50;;
3249;SDS011;1637;42.020;23.992;2022-11-20T05:25:51;4.23;;;1.10;;
3249;SDS011;1637;42.020;23.992;2022-11-20T05:28:19;4.53;;;1.07;;
3249;SDS011;1637;42.020;23.992;2022-11-20T05:30:46;2.50;;;1.40;;
3249;SDS011;1637;42.020;23.992;2022-11-20T05:33:15;11.10;;;1.40;;
3249;SDS011;1637;42.020;23.992;2022-11-20T05:35:42;8.23;;;1.50;;
3249;SDS011;1637;42.020;23.992;2022-11-20T05:38:09;3.63;;;1.67;;
3249;SDS011;1637;42.020;23.992;2022-11-20T05:40:36;4.27;;;2.80;;
3249;SDS011;1637;42.020;23.992;2022-11-20T05:43:03;7.93;;;1.83;;
3249;SDS011;1637;42.020;23.992;2022-11-20T05:45:30;5.60;;;1.70;;
3249;SDS011;1637;42.020;23.992;2022-11-20T05:47:57;5.00;;;3.17;;
3249;SDS011;1637;42.020;23.992;2022-11-20T05:50:27;6.07;;;2.30;;
3249;SDS011;1637;42.020;23.992;2022-11-20T05:52:54;8.07;;;5.03;;
3249;SDS011;1637;42.020;23.992;2022-11-20T05:55:23;6.87;;;4.30;;
3249;SDS011;1637;42.020;23.992;2022-11-20T05:57:51;12.63;;;5.60;;
3249;SDS011;1637;42.020;23.992;2022-11-20T06:00:19;14.07;;;5.50;;
3249;SDS011;1637;42.020;23.992;2022-11-20T06:02:46;4.63;;;2.07;;
3249;SDS011;1637;42.020;23.992;2022-11-20T06:05:13;5.67;;;1.87;;
3249;SDS011;1637;42.020;23.992;2022-11-20T06:07:41;4.20;;;2.40;;
3249;SDS011;1637;42.020;23.992;2022-11-20T06:10:08;4.70;;;1.90;;
3249;SDS011;1637;42.020;23.992;2022-11-20T06:12:35;6.00;;;2.40;;
3249;SDS011;1637;42.020;23.992;2022-11-20T06:15:02;4.67;;;2.83;;
3249;SDS011;1637;42.020;23.992;2022-11-20T06:17:30;21.47;;;8.27;;
3249;SDS011;1637;42.020;23.992;2022-11-20T06:19:57;15.60;;;9.20;;
3249;SDS011;1637;42.020;23.992;2022-11-20T06:22:23;8.40;;;3.17;;
3249;SDS011;1637;42.020;23.992;2022-11-20T06:24:52;13.00;;;5.50;;
3249;SDS011;1637;42.020;23.992;2022-11-20T06:27:18;19.10;;;9.23;;
3249;SDS011;1637;42.020;23.992;2022-11-20T06:29:45;14.67;;;5.10;;
3249;SDS011;1637;42.020;23.992;2022-11-20T06:32:12;25.13;;;7.60;;
3249;SDS011;1637;42.020;23.992;2022-11-20T06:34:39;10.03;;;3.80;;
3249;SDS011;1637;42.020;23.992;2022-11-20T06:37:06;14.60;;;4.73;;
3249;SDS011;1637;42.020;23.992;2022-11-20T06:39:32;5.43;;;3.10;;
3249;SDS011;1637;42.020;23.992;2022-11-20T06:42:01;6.23;;;1.33;;
3249;SDS011;1637;42.020;23.992;2022-11-20T06:44:27;4.67;;;2.63;;
3249;SDS011;1637;42.020;23.992;2022-11-20T06:46:54;20.03;;;7.97;;
3249;SDS011;1637;42.020;23.992;2022-11-20T06:49:21;4.97;;;2.43;;
3249;SDS011;1637;42.020;23.992;2022-11-20T06:51:48;6.30;;;2.63;;
3249;SDS011;1637;42.020;23.992;2022-11-20T06:54:15;20.93;;;6.97;;
3249;SDS011;1637;42.020;23.992;2022-11-20T06:56:41;9.60;;;2.40;;
3249;SDS011;1637;42.020;23.992;2022-11-20T06:59:10;12.50;;;4.70;;
3249;SDS011;1637;42.020;23.992;2022-11-20T07:01:36;7.50;;;2.07;;
3249;SDS011;1637;42.020;23.992;2022-11-20T07:04:03;4.73;;;2.20;;
3249;SDS011;1637;42.020;23.992;2022-11-20T07:06:30;11.80;;;4.67;;
3249;SDS011;1637;42.020;23.992;2022-11-20T07:08:57;5.60;;;2.60;;
3249;SDS011;1637;42.020;23.992;2022-11-20T07:11:24;4.50;;;2.13;;
3249;SDS011;1637;42.020;23.992;2022-11-20T07:13:51;3.83;;;1.63;;
3249;SDS011;1637;42.020;23.992;2022-11-20T07:16:19;6.13;;;2.43;;
3249;SDS011;1637;42.020;23.992;2022-11-20T07:18:46;13.23;;;1.57;;
3249;SDS011;1637;42.020;23.992;2022-11-20T07:21:13;5.50;;;1.90;;
3249;SDS011;1637;42.020;23.992;2022-11-20T07:23:40;3.60;;;1.70;;
3249;SDS011;1637;42.020;23.992;2022-11-20T07:26:07;5.77;;;2.00;;
3249;SDS011;1637;42.020;23.992;2022-11-20T07:28:35;4.87;;;1.50;;
3249;SDS011;1637;42.020;23.992;2022-11-20T07:31:03;4.60;;;1.93;;
3249;SDS011;1637;42.020;23.992;2022-11-20T07:33:33;4.60;;;1.70;;
3249;SDS011;1637;42.020;23.992;2022-11-20T07:35:59;6.40;;;1.70;;
3249;SDS011;1637;42.020;23.992;2022-11-20T07:38:27;6.87;;;2.20;;
3249;SDS011;1637;42.020;23.992;2022-11-20T07:40:54;7.23;;;2.33;;
3249;SDS011;1637;42.020;23.992;2022-11-20T07:43:21;6.00;;;1.80;;
3249;SDS011;1637;42.020;23.992;2022-11-20T07:45:48;9.10;;;1.40;;
3249;SDS011;1637;42.020;23.992;2022-11-20T07:48:15;4.97;;;2.33;;
3249;SDS011;1637;42.020;23.992;2022-11-20T07:50:43;10.63;;;1.47;;
3249;SDS011;1637;42.020;23.992;2022-11-20T07:53:10;4.80;;;1.63;;
3249;SDS011;1637;42.020;23.992;2022-11-20T07:55:37;5.27;;;1.30;;
3249;SDS011;1637;42.020;23.992;2022-11-20T07:58:04;8.57;;;1.83;;
3249;SDS011;1637;42.020;23.992;2022-11-20T08:00:31;13.70;;;1.27;;
3249;SDS011;1637;42.020;23.992;2022-11-20T08:02:58;5.63;;;1.40;;
3249;SDS011;1637;42.020;23.992;2022-11-20T08:05:25;11.87;;;1.30;;
3249;SDS011;1637;42.020;23.992;2022-11-20T08:07:53;6.60;;;1.30;;
3249;SDS011;1637;42.020;23.992;2022-11-20T08:10:20;5.67;;;1.40;;
3249;SDS011;1637;42.020;23.992;2022-11-20T08:12:47;10.53;;;1.40;;
3249;SDS011;1637;42.020;23.992;2022-11-20T08:15:32;9.93;;;1.67;;
3249;SDS011;1637;42.020;23.992;2022-11-20T08:18:03;15.13;;;1.80;;
3249;SDS011;1637;42.020;23.992;2022-11-20T08:20:32;4.00;;;2.10;;
3249;SDS011;1637;42.020;23.992;2022-11-20T08:23:01;11.70;;;2.30;;
3249;SDS011;1637;42.020;23.992;2022-11-20T08:25:29;6.37;;;2.20;;
3249;SDS011;1637;42.020;23.992;2022-11-20T08:27:59;8.40;;;3.27;;
3249;SDS011;1637;42.020;23.992;2022-11-20T08:30:27;7.70;;;3.47;;
3249;SDS011;1637;42.020;23.992;2022-11-20T08:32:54;10.80;;;1.20;;
3249;SDS011;1637;42.020;23.992;2022-11-20T08:35:27;16.50;;;9.20;;
3249;SDS011;1637;42.020;23.992;2022-11-20T08:37:54;8.63;;;1.83;;
3249;SDS011;1637;42.020;23.992;2022-11-20T08:40:22;3.93;;;1.20;;
3249;SDS011;1637;42.020;23.992;2022-11-20T08:42:49;4.40;;;1.60;;
3249;SDS011;1637;42.020;23.992;2022-11-20T08:45:18;4.70;;;1.07;;
3249;SDS011;1637;42.020;23.992;2022-11-20T08:47:45;8.57;;;1.77;;
3249;SDS011;1637;42.020;23.992;2022-11-20T08:50:13;10.97;;;2.53;;
3249;SDS011;1637;42.020;23.992;2022-11-20T08:52:42;6.53;;;1.43;;
3249;SDS011;1637;42.020;23.992;2022-11-20T08:55:09;7.43;;;1.30;;
3249;SDS011;1637;42.020;23.992;2022-11-20T08:57:37;3.20;;;1.73;;
3249;SDS011;1637;42.020;23.992;2022-11-20T09:00:05;11.83;;;1.87;;
3249;SDS011;1637;42.020;23.992;2022-11-20T09:02:33;10.47;;;1.57;;
3249;SDS011;1637;42.020;23.992;2022-11-20T09:05:00;8.30;;;1.73;;
3249;SDS011;1637;42.020;23.992;2022-11-20T09:07:28;12.47;;;1.80;;
3249;SDS011;1637;42.020;23.992;2022-11-20T09:09:55;15.87;;;1.80;;
3249;SDS011;1637;42.020;23.992;2022-11-20T09:12:22;11.57;;;2.00;;
3249;SDS011;1637;42.020;23.992;2022-11-20T09:14:50;11.27;;;1.90;;
3249;SDS011;1637;42.020;23.992;2022-11-20T09:17:17;15.00;;;1.80;;
3249;SDS011;1637;42.020;23.992;2022-11-20T09:19:45;12.97;;;2.40;;
3249;SDS011;1637;42.020;23.992;2022-11-20T09:22:12;7.57;;;1.57;;
3249;SDS011;1637;42.020;23.992;2022-11-20T09:24:39;15.90;;;2.70;;
3249;SDS011;1637;42.020;23.992;2022-11-20T09:27:06;10.60;;;2.17;;
3249;SDS011;1637;42.020;23.992;2022-11-20T09:29:33;22.60;;;2.10;;
3249;SDS011;1637;42.020;23.992;2022-11-20T09:32:01;17.63;;;3.20;;
3249;SDS011;1637;42.020;23.992;2022-11-20T09:34:28;9.33;;;2.10;;
3249;SDS011;1637;42.020;23.992;2022-11-20T09:36:55;4.90;;;1.43;;
3249;SDS011;1637;42.020;23.992;2022-11-20T09:39:22;13.03;;;2.40;;
3249;SDS011;1637;42.020;23.992;2022-11-20T09:41:53;10.83;;;3.10;;
3249;SDS011;1637;42.020;23.992;2022-11-20T09:44:35;17.70;;;3.27;;
3249;SDS011;1637;42.020;23.992;2022-11-20T09:47:21;9.67;;;2.30;;
3249;SDS011;1637;42.020;23.992;2022-11-20T09:50:00;14.03;;;2.63;;
3249;SDS011;1637;42.020;23.992;2022-11-20T09:52:42;9.20;;;1.93;;
3249;SDS011;1637;42.020;23.992;2022-11-20T09:55:16;15.00;;;2.57;;
3249;SDS011;1637;42.020;23.992;2022-11-20T09:57:44;7.70;;;2.00;;
3249;SDS011;1637;42.020;23.992;2022-11-20T10:00:14;21.87;;;3.23;;
3249;SDS011;1637;42.020;23.992;2022-11-20T10:02:44;9.77;;;2.27;;
3249;SDS011;1637;42.020;23.992;2022-11-20T10:05:20;6.00;;;2.33;;
3249;SDS011;1637;42.020;23.992;2022-11-20T10:07:51;14.83;;;3.60;;
3249;SDS011;1637;42.020;23.992;2022-11-20T10:10:26;13.23;;;2.23;;
3249;SDS011;1637;42.020;23.992;2022-11-20T10:13:02;15.33;;;3.43;;
3249;SDS011;1637;42.020;23.992;2022-11-20T10:15:44;14.00;;;3.03;;
3249;SDS011;1637;42.020;23.992;2022-11-20T10:18:23;14.93;;;3.20;;
3249;SDS011;1637;42.020;23.992;2022-11-20T10:21:05;8.13;;;2.73;;
3249;SDS011;1637;42.020;23.992;2022-11-20T10:23:45;27.77;;;4.43;;
3249;SDS011;1637;42.020;23.992;2022-11-20T10:26:26;20.30;;;3.07;;
3249;SDS011;1637;42.020;23.992;2022-11-20T10:29:01;9.57;;;1.83;;
3249;SDS011;1637;42.020;23.992;2022-11-20T10:31:37;14.60;;;2.13;;
3249;SDS011;1637;42.020;23.992;2022-11-20T10:34:07;27.03;;;4.57;;
3249;SDS011;1637;42.020;23.992;2022-11-20T10:36:46;9.63;;;2.33;;
3249;SDS011;1637;42.020;23.992;2022-11-20T10:39:17;17.13;;;2.03;;
3249;SDS011;1637;42.020;23.992;2022-11-20T10:41:51;5.57;;;1.37;;
3249;SDS011;1637;42.020;23.992;2022-11-20T10:44:19;11.53;;;1.73;;
3249;SDS011;1637;42.020;23.992;2022-11-20T10:47:01;6.07;;;2.10;;
3249;SDS011;1637;42.020;23.992;2022-11-20T10:49:31;11.37;;;2.00;;
3249;SDS011;1637;42.020;23.992;2022-11-20T10:52:03;16.17;;;2.30;;
3249;SDS011;1637;42.020;23.992;2022-11-20T10:54:36;13.47;;;2.47;;
3249;SDS011;1637;42.020;23.992;2022-11-20T10:57:14;21.07;;;3.73;;
3249;SDS011;1637;42.020;23.992;2022-11-20T10:59:54;12.20;;;3.23;;
3249;SDS011;1637;42.020;23.992;2022-11-20T11:02:34;14.23;;;3.00;;
3249;SDS011;1637;42.020;23.992;2022-11-20T11:05:10;15.67;;;2.90;;
3249;SDS011;1637;42.020;23.992;2022-11-20T11:07:52;11.77;;;2.40;;
3249;SDS011;1637;42.020;23.992;2022-11-20T11:10:23;16.50;;;2.10;;
3249;SDS011;1637;42.020;23.992;2022-11-20T11:12:52;17.33;;;3.60;;
3249;SDS011;1637;42.020;23.992;2022-11-20T11:15:25;15.23;;;2.43;;
3249;SDS011;1637;42.020;23.992;2022-11-20T11:17:53;11.30;;;3.07;;
3249;SDS011;1637;42.020;23.992;2022-11-20T11:20:22;11.10;;;2.83;;
3249;SDS011;1637;42.020;23.992;2022-11-20T11:22:51;7.67;;;3.13;;
3249;SDS011;1637;42.020;23.992;2022-11-20T11:25:24;15.73;;;3.07;;
3249;SDS011;1637;42.020;23.992;2022-11-20T11:27:53;12.37;;;2.47;;
3249;SDS011;1637;42.020;23.992;2022-11-20T11:30:23;5.97;;;2.63;;
3249;SDS011;1637;42.020;23.992;2022-11-20T11:33:01;16.93;;;2.93;;
3249;SDS011;1637;42.020;23.992;2022-11-20T11:35:30;11.00;;;2.30;;
3249;SDS011;1637;42.020;23.992;2022-11-20T11:38:02;17.40;;;2.90;;
3249;SDS011;1637;42.020;23.992;2022-11-20T11:40:31;14.73;;;2.37;;
3249;SDS011;1637;42.020;23.992;2022-11-20T11:43:01;9.60;;;2.57;;
3249;SDS011;1637;42.020;23.992;2022-11-20T11:45:52;11.97;;;2.70;;
3249;SDS011;1637;42.020;23.992;2022-11-20T11:48:19;15.73;;;3.07;;
3249;SDS011;1637;42.020;23.992;2022-11-20T11:50:49;24.20;;;2.70;;
3249;SDS011;1637;42.020;23.992;2022-11-20T11:53:17;10.17;;;2.43;;
3249;SDS011;1637;42.020;23.992;2022-11-20T11:55:47;9.07;;;2.10;;
3249;SDS011;1637;42.020;23.992;2022-11-20T11:58:20;12.17;;;2.27;;
3249;SDS011;1637;42.020;23.992;2022-11-20T12:00:58;13.00;;;2.53;;
3249;SDS011;1637;42.020;23.992;2022-11-20T12:03:33;11.60;;;1.90;;
3249;SDS011;1637;42.020;23.992;2022-11-20T12:06:05;14.53;;;2.60;;
3249;SDS011;1637;42.020;23.992;2022-11-20T12:08:39;16.03;;;3.10;;
3249;SDS011;1637;42.020;23.992;2022-11-20T12:11:11;14.50;;;2.83;;
3249;SDS011;1637;42.020;23.992;2022-11-20T12:13:47;13.53;;;2.73;;
3249;SDS011;1637;42.020;23.992;2022-11-20T12:16:19;14.03;;;1.80;;
3249;SDS011;1637;42.020;23.992;2022-11-20T12:18:47;18.73;;;3.13;;
3249;SDS011;1637;42.020;23.992;2022-11-20T12:21:23;13.40;;;2.17;;
3249;SDS011;1637;42.020;23.992;2022-11-20T12:24:10;10.23;;;2.97;;
3249;SDS011;1637;42.020;23.992;2022-11-20T12:26:58;19.00;;;3.50;;
3249;SDS011;1637;42.020;23.992;2022-11-20T12:29:37;20.33;;;3.90;;
3249;SDS011;1637;42.020;23.992;2022-11-20T12:32:20;16.10;;;4.50;;
3249;SDS011;1637;42.020;23.992;2022-11-20T12:35:04;13.30;;;3.53;;
3249;SDS011;1637;42.020;23.992;2022-11-20T12:37:45;17.10;;;4.00;;
3249;SDS011;1637;42.020;23.992;2022-11-20T12:40:23;12.90;;;2.27;;
3249;SDS011;1637;42.020;23.992;2022-11-20T12:43:00;25.60;;;3.23;;
3249;SDS011;1637;42.020;23.992;2022-11-20T12:46:00;17.73;;;4.90;;
3249;SDS011;1637;42.020;23.992;2022-11-20T12:51:48;14.97;;;4.23;;
3249;SDS011;1637;42.020;23.992;2022-11-20T12:54:32;16.47;;;4.57;;
3249;SDS011;1637;42.020;23.992;2022-11-20T12:57:14;23.77;;;5.63;;
3249;SDS011;1637;42.020;23.992;2022-11-20T12:59:54;14.17;;;4.63;;
3249;SDS011;1637;42.020;23.992;2022-11-20T13:02:30;28.40;;;10.43;;
3249;SDS011;1637;42.020;23.992;2022-11-20T13:05:11;23.73;;;8.63;;
3249;SDS011;1637;42.020;23.992;2022-11-20T13:07:48;21.40;;;8.10;;
3249;SDS011;1637;42.020;23.992;2022-11-20T13:10:23;14.73;;;7.30;;
3249;SDS011;1637;42.020;23.992;2022-11-20T13:12:58;21.53;;;9.80;;
3249;SDS011;1637;42.020;23.992;2022-11-20T13:15:37;10.70;;;4.50;;
3249;SDS011;1637;42.020;23.992;2022-11-20T13:18:12;11.23;;;5.10;;
3249;SDS011;1637;42.020;23.992;2022-11-20T13:20:43;8.23;;;3.07;;
3249;SDS011;1637;42.020;23.992;2022-11-20T13:23:11;12.80;;;4.77;;
3249;SDS011;1637;42.020;23.992;2022-11-20T13:25:39;10.00;;;3.67;;
3249;SDS011;1637;42.020;23.992;2022-11-20T13:30:53;5.63;;;3.00;;
3249;SDS011;1637;42.020;23.992;2022-11-20T13:33:22;4.70;;;2.70;;
3249;SDS011;1637;42.020;23.992;2022-11-20T13:35:57;3.13;;;2.03;;
3249;SDS011;1637;42.020;23.992;2022-11-20T13:38:26;4.83;;;2.93;;
3249;SDS011;1637;42.020;23.992;2022-11-20T13:40:55;7.73;;;4.07;;
3249;SDS011;1637;42.020;23.992;2022-11-20T13:43:26;6.00;;;4.43;;
3249;SDS011;1637;42.020;23.992;2022-11-20T13:45:59;17.53;;;8.20;;
3249;SDS011;1637;42.020;23.992;2022-11-20T13:48:29;21.43;;;10.97;;
3249;SDS011;1637;42.020;23.992;2022-11-20T13:51:11;30.10;;;16.30;;
3249;SDS011;1637;42.020;23.992;2022-11-20T13:53:53;32.00;;;15.90;;
3249;SDS011;1637;42.020;23.992;2022-11-20T13:56:54;11.80;;;8.40;;
3249;SDS011;1637;42.020;23.992;2022-11-20T13:59:40;13.50;;;9.50;;
3249;SDS011;1637;42.020;23.992;2022-11-20T14:02:16;7.20;;;5.17;;
3249;SDS011;1637;42.020;23.992;2022-11-20T14:04:45;3.60;;;2.00;;
3249;SDS011;1637;42.020;23.992;2022-11-20T14:07:15;5.90;;;3.37;;
3249;SDS011;1637;42.020;23.992;2022-11-20T14:09:49;5.40;;;2.40;;
3249;SDS011;1637;42.020;23.992;2022-11-20T14:12:19;3.17;;;1.97;;
3249;SDS011;1637;42.020;23.992;2022-11-20T14:14:49;11.03;;;5.37;;
3249;SDS011;1637;42.020;23.992;2022-11-20T14:17:18;24.30;;;11.27;;
3249;SDS011;1637;42.020;23.992;2022-11-20T14:19:46;41.60;;;18.97;;
3249;SDS011;1637;42.020;23.992;2022-11-20T14:22:19;21.57;;;13.47;;
3249;SDS011;1637;42.020;23.992;2022-11-20T14:24:47;16.40;;;11.07;;
3249;SDS011;1637;42.020;23.992;2022-11-20T14:27:15;14.63;;;6.90;;
3249;SDS011;1637;42.020;23.992;2022-11-20T14:29:45;11.67;;;5.80;;
3249;SDS011;1637;42.020;23.992;2022-11-20T14:32:16;8.23;;;6.23;;
3249;SDS011;1637;42.020;23.992;2022-11-20T14:34:44;5.23;;;3.60;;
3249;SDS011;1637;42.020;23.992;2022-11-20T14:37:17;24.90;;;17.17;;
3249;SDS011;1637;42.020;23.992;2022-11-20T14:39:48;33.47;;;17.93;;
3249;SDS011;1637;42.020;23.992;2022-11-20T14:42:17;37.67;;;22.80;;
3249;SDS011;1637;42.020;23.992;2022-11-20T14:44:47;16.40;;;10.47;;
3249;SDS011;1637;42.020;23.992;2022-11-20T14:47:15;48.17;;;27.00;;
3249;SDS011;1637;42.020;23.992;2022-11-20T14:49:46;66.43;;;34.07;;
3249;SDS011;1637;42.020;23.992;2022-11-20T14:52:15;37.13;;;20.20;;
3249;SDS011;1637;42.020;23.992;2022-11-20T14:54:43;17.63;;;9.80;;
3249;SDS011;1637;42.020;23.992;2022-11-20T14:57:20;8.40;;;3.80;;
3249;SDS011;1637;42.020;23.992;2022-11-20T14:59:50;22.33;;;11.27;;
3249;SDS011;1637;42.020;23.992;2022-11-20T15:02:17;24.40;;;13.97;;
3249;SDS011;1637;42.020;23.992;2022-11-20T15:04:44;26.70;;;14.53;;
3249;SDS011;1637;42.020;23.992;2022-11-20T15:07:22;50.07;;;17.27;;
3249;SDS011;1637;42.020;23.992;2022-11-20T15:09:59;31.57;;;17.27;;
3249;SDS011;1637;42.020;23.992;2022-11-20T15:12:26;33.53;;;17.90;;
3249;SDS011;1637;42.020;23.992;2022-11-20T15:14:55;25.80;;;12.50;;
3249;SDS011;1637;42.020;23.992;2022-11-20T15:17:21;26.40;;;13.30;;
3249;SDS011;1637;42.020;23.992;2022-11-20T15:19:48;15.90;;;8.63;;
3249;SDS011;1637;42.020;23.992;2022-11-20T15:22:15;13.73;;;5.97;;